createdAt,value
2022-10-13T00:01:38.661Z,20.00
2022-10-13T00:04:05.023Z,17.95
2022-10-13T00:06:31.748Z,18.30
2022-10-13T00:08:58.693Z,16.90
2022-10-13T00:11:26.426Z,17.05
2022-10-13T00:13:55.340Z,18.45
2022-10-13T00:16:21.962Z,18.42
2022-10-13T00:18:48.782Z,18.02
2022-10-13T00:21:16.634Z,18.30
2022-10-13T00:23:43.818Z,18.65
2022-10-13T00:26:11.254Z,18.25
2022-10-13T00:28:37.728Z,18.23
2022-10-13T00:31:04.577Z,17.10
2022-10-13T00:33:30.868Z,17.50
2022-10-13T00:35:57.117Z,18.38
2022-10-13T00:38:23.494Z,16.67
2022-10-13T00:40:54.698Z,18.98
2022-10-13T00:43:22.338Z,17.70
2022-10-13T00:45:52.233Z,19.05
2022-10-13T00:48:26.439Z,17.85
2022-10-13T00:50:52.964Z,19.40
2022-10-13T00:53:21.050Z,18.63
2022-10-13T00:55:47.572Z,19.52
2022-10-13T00:58:16.170Z,19.48
2022-10-13T01:00:44.896Z,17.90
2022-10-13T01:03:13.938Z,18.58
2022-10-13T01:05:40.770Z,18.52
2022-10-13T01:08:07.610Z,19.33
2022-10-13T01:10:41.105Z,19.13
2022-10-13T01:13:11.869Z,20.08
2022-10-13T01:15:45.652Z,18.85
2022-10-13T01:18:30.695Z,18.90
2022-10-13T01:21:17.579Z,19.08
2022-10-13T01:23:46.997Z,19.92
2022-10-13T01:26:40.564Z,20.90
2022-10-13T01:29:25.685Z,19.83
2022-10-13T01:32:14.689Z,20.10
2022-10-13T01:34:49.244Z,20.48
2022-10-13T01:37:29.514Z,20.80
2022-10-13T01:40:10.235Z,20.13
2022-10-13T01:42:45.665Z,19.23
2022-10-13T01:45:15.108Z,20.10
2022-10-13T01:47:42.169Z,19.58
2022-10-13T01:50:08.776Z,19.83
2022-10-13T01:52:38.273Z,19.83
2022-10-13T01:55:05.917Z,17.90
2022-10-13T01:57:42.665Z,19.88
2022-10-13T02:00:13.545Z,18.35
2022-10-13T02:02:43.366Z,18.05
2022-10-13T02:05:28.052Z,18.50
2022-10-13T02:07:59.101Z,17.30
2022-10-13T02:10:44.674Z,18.08
2022-10-13T02:13:14.014Z,18.10
2022-10-13T02:15:43.466Z,19.77
2022-10-13T02:18:12.833Z,17.98
2022-10-13T02:20:40.612Z,18.05
2022-10-13T02:23:09.062Z,16.42
2022-10-13T02:25:35.831Z,16.98
2022-10-13T02:28:02.273Z,17.20
2022-10-13T02:30:33.057Z,16.90
2022-10-13T02:33:00.404Z,16.98
2022-10-13T02:35:26.774Z,17.90
2022-10-13T02:37:53.104Z,16.33
2022-10-13T02:40:19.638Z,16.55
2022-10-13T02:42:45.962Z,17.70
2022-10-13T02:45:12.473Z,16.77
2022-10-13T02:47:38.854Z,17.05
2022-10-13T02:50:05.442Z,17.02
2022-10-13T02:52:31.719Z,17.15
2022-10-13T02:54:58.105Z,17.02
2022-10-13T02:57:24.558Z,17.27
2022-10-13T02:59:52.006Z,16.73
2022-10-13T03:02:19.049Z,17.00
2022-10-13T03:04:45.592Z,15.88
2022-10-13T03:07:11.886Z,15.48
2022-10-13T03:09:38.202Z,16.27
2022-10-13T03:12:04.960Z,15.40
2022-10-13T03:14:31.294Z,14.88
2022-10-13T03:16:57.642Z,15.98
2022-10-13T03:19:23.949Z,16.40
2022-10-13T03:21:50.238Z,16.58
2022-10-13T03:24:16.525Z,16.52
2022-10-13T03:26:42.823Z,15.70
2022-10-13T03:29:14.951Z,16.02
2022-10-13T03:31:41.670Z,16.77
2022-10-13T03:34:09.034Z,16.65
2022-10-13T03:36:35.352Z,16.58
2022-10-13T03:39:01.721Z,16.20
2022-10-13T03:41:28.071Z,16.45
2022-10-13T03:43:54.406Z,15.68
2022-10-13T03:46:20.679Z,15.00
2022-10-13T03:48:48.153Z,16.80
2022-10-13T03:51:15.869Z,16.02
2022-10-13T03:53:44.875Z,15.35
2022-10-13T03:56:15.373Z,15.57
2022-10-13T03:58:54.636Z,16.02
2022-10-13T04:01:22.368Z,15.52
2022-10-13T04:03:49.306Z,15.43
2022-10-13T04:06:15.589Z,16.35
2022-10-13T04:08:41.860Z,17.85
2022-10-13T04:11:10.523Z,17.88
2022-10-13T04:13:39.656Z,19.08
2022-10-13T04:16:07.292Z,17.52
2022-10-13T04:18:33.997Z,17.30
2022-10-13T04:21:00.752Z,16.80
2022-10-13T04:23:27.052Z,17.80
2022-10-13T04:25:53.341Z,16.63
2022-10-13T04:28:19.658Z,17.10
2022-10-13T04:30:49.420Z,16.83
2022-10-13T04:33:16.095Z,16.42
2022-10-13T04:35:42.369Z,17.10
2022-10-13T04:38:08.999Z,17.60
2022-10-13T04:40:35.857Z,18.55
2022-10-13T04:43:02.589Z,19.38
2022-10-13T04:45:28.917Z,19.02
2022-10-13T04:47:55.193Z,18.25
2022-10-13T04:50:21.526Z,17.50
2022-10-13T04:52:58.269Z,16.58
2022-10-13T04:55:24.673Z,15.95
2022-10-13T04:57:50.953Z,17.02
2022-10-13T05:00:17.342Z,16.58
2022-10-13T05:02:43.645Z,16.38
2022-10-13T05:05:10.385Z,18.20
2022-10-13T05:07:36.660Z,17.30
2022-10-13T05:10:02.972Z,17.30
2022-10-13T05:12:29.253Z,16.80
2022-10-13T05:14:55.561Z,18.00
2022-10-13T05:17:21.830Z,17.70
2022-10-13T05:19:48.801Z,17.33
2022-10-13T05:22:15.086Z,18.50
2022-10-13T05:24:41.365Z,17.45
2022-10-13T05:27:12.140Z,18.38
2022-10-13T05:29:38.601Z,21.02
2022-10-13T05:32:05.550Z,19.92
2022-10-13T05:34:32.607Z,22.00
2022-10-13T05:36:59.392Z,21.65
2022-10-13T05:39:25.763Z,20.50
2022-10-13T05:41:52.170Z,20.95
2022-10-13T05:44:21.624Z,24.73
2022-10-13T05:46:54.765Z,27.10
2022-10-13T05:49:21.109Z,30.95
2022-10-13T05:51:48.691Z,35.00
2022-10-13T05:54:24.198Z,34.75
2022-10-13T05:56:57.237Z,33.40
2022-10-13T05:59:27.331Z,32.88
2022-10-13T06:01:54.282Z,33.53
2022-10-13T06:04:26.680Z,33.85
2022-10-13T06:06:52.952Z,38.10
2022-10-13T06:09:19.477Z,34.85
2022-10-13T06:11:46.156Z,33.40
2022-10-13T06:14:12.492Z,33.15
2022-10-13T06:16:38.780Z,33.42
2022-10-13T06:19:05.370Z,34.13
2022-10-13T06:21:33.715Z,31.50
2022-10-13T06:24:01.186Z,30.48
2022-10-13T06:26:27.463Z,32.22
2022-10-13T06:28:58.514Z,33.13
2022-10-13T06:31:25.727Z,33.85
2022-10-13T06:33:51.995Z,30.67
2022-10-13T06:36:18.319Z,30.80
2022-10-13T06:38:44.599Z,29.42
2022-10-13T06:41:12.530Z,30.13
2022-10-13T06:43:40.310Z,29.13
2022-10-13T06:46:09.612Z,25.17
2022-10-13T06:48:35.937Z,26.08
2022-10-13T06:51:03.398Z,30.33
2022-10-13T06:53:29.724Z,30.27
2022-10-13T06:55:56.862Z,28.40
2022-10-13T06:58:23.158Z,27.33
2022-10-13T07:00:49.536Z,27.42
2022-10-13T07:03:15.859Z,30.83
2022-10-13T07:05:42.105Z,29.25
2022-10-13T07:08:08.438Z,28.60
2022-10-13T07:10:37.038Z,27.73
2022-10-13T07:13:03.320Z,26.42
2022-10-13T07:15:30.490Z,25.73
2022-10-13T07:17:56.901Z,26.30
2022-10-13T07:20:24.008Z,25.70
2022-10-13T07:22:54.241Z,24.83
2022-10-13T07:25:21.504Z,22.95
2022-10-13T07:27:47.769Z,20.98
2022-10-13T07:30:14.070Z,21.23
2022-10-13T07:32:41.980Z,19.90
2022-10-13T07:35:09.838Z,20.52
2022-10-13T07:37:36.391Z,20.20
2022-10-13T07:40:03.685Z,20.05
2022-10-13T07:42:30.643Z,19.73
2022-10-13T07:44:57.002Z,18.98
2022-10-13T07:47:25.452Z,19.08
2022-10-13T07:49:51.808Z,21.23
2022-10-13T07:52:18.577Z,20.35
2022-10-13T07:54:45.203Z,19.80
2022-10-13T07:57:11.568Z,18.23
2022-10-13T07:59:37.917Z,17.63
2022-10-13T08:02:04.278Z,19.23
2022-10-13T08:04:31.108Z,18.63
2022-10-13T08:06:57.503Z,19.08
2022-10-13T08:09:24.248Z,19.73
2022-10-13T08:11:50.898Z,20.42
2022-10-13T08:14:17.225Z,21.75
2022-10-13T08:16:48.590Z,21.02
2022-10-13T08:21:58.327Z,22.23
2022-10-13T08:24:26.137Z,23.15
2022-10-13T08:26:52.470Z,23.63
2022-10-13T08:29:23.542Z,22.23
2022-10-13T08:31:51.770Z,22.42
2022-10-13T08:34:18.383Z,22.55
2022-10-13T08:36:44.737Z,20.67
2022-10-13T08:39:11.024Z,20.52
2022-10-13T08:41:38.925Z,20.55
2022-10-13T08:44:59.293Z,20.00
2022-10-13T08:46:59.524Z,19.08
2022-10-13T08:49:25.941Z,20.15
2022-10-13T08:51:53.894Z,20.83
2022-10-13T08:54:21.490Z,20.20
2022-10-13T08:56:50.875Z,21.48
2022-10-13T08:59:18.256Z,20.95
2022-10-13T09:01:49.033Z,20.13
2022-10-13T09:04:28.184Z,22.25
2022-10-13T09:07:11.758Z,20.70
2022-10-13T09:09:38.424Z,22.10
2022-10-13T09:12:05.722Z,22.00
2022-10-13T09:14:34.097Z,20.45
2022-10-13T09:17:18.546Z,21.48
2022-10-13T09:19:46.191Z,20.90
2022-10-13T09:22:23.577Z,21.00
2022-10-13T09:25:04.242Z,21.95
2022-10-13T09:27:41.278Z,21.83
2022-10-13T09:30:27.968Z,21.23
2022-10-13T09:33:15.836Z,21.20
2022-10-13T09:35:43.725Z,21.55
2022-10-13T09:38:20.469Z,21.10
2022-10-13T09:41:01.617Z,20.83
2022-10-13T09:43:31.901Z,20.25
2022-10-13T09:45:59.277Z,19.88
2022-10-13T09:48:27.441Z,19.08
2022-10-13T09:50:55.236Z,20.33
2022-10-13T09:53:32.449Z,20.27
2022-10-13T09:56:07.965Z,21.23
2022-10-13T09:58:36.971Z,22.92
2022-10-13T10:01:03.346Z,22.48
2022-10-13T10:03:33.364Z,23.75
2022-10-13T10:06:01.183Z,22.35
2022-10-13T10:09:04.657Z,22.40
2022-10-13T10:11:34.200Z,24.73
2022-10-13T10:14:02.407Z,24.88
2022-10-13T10:16:36.739Z,24.42
2022-10-13T10:19:07.288Z,24.10
2022-10-13T10:21:37.293Z,24.70
2022-10-13T10:24:22.997Z,24.67
2022-10-13T10:26:58.610Z,24.92
2022-10-13T10:29:33.914Z,27.88
2022-10-13T10:32:03.168Z,26.98
2022-10-13T10:34:37.936Z,26.42
2022-10-13T10:37:25.313Z,26.55
2022-10-13T10:40:01.586Z,27.10
2022-10-13T10:42:51.976Z,26.05
2022-10-13T10:45:21.698Z,26.33
2022-10-13T10:47:51.316Z,26.20
2022-10-13T10:50:20.320Z,23.77
2022-10-13T10:52:52.802Z,24.60
2022-10-13T10:55:19.249Z,25.63
2022-10-13T10:58:02.062Z,26.17
2022-10-13T11:03:02.763Z,22.65
2022-10-13T11:05:58.632Z,22.95
2022-10-13T11:08:26.266Z,21.63
2022-10-13T11:11:12.525Z,22.58
2022-10-13T11:13:50.253Z,21.42
2022-10-13T11:16:38.731Z,19.60
2022-10-13T11:19:32.108Z,19.95
2022-10-13T11:21:58.358Z,20.60
2022-10-13T11:24:33.689Z,19.15
2022-10-13T11:27:09.216Z,20.13
2022-10-13T11:29:45.556Z,19.90
2022-10-13T11:32:36.121Z,19.88
2022-10-13T11:35:05.889Z,23.00
2022-10-13T11:37:40.757Z,23.27
2022-10-13T11:40:26.066Z,23.20
2022-10-13T11:43:08.266Z,22.98
2022-10-13T11:45:47.129Z,21.88
2022-10-13T11:48:33.658Z,22.42
2022-10-13T11:51:29.497Z,18.15
2022-10-13T11:54:04.112Z,16.17
2022-10-13T11:56:48.342Z,23.73
2022-10-13T11:59:19.901Z,25.83
2022-10-13T12:01:46.275Z,25.85
2022-10-13T12:04:15.177Z,18.33
2022-10-13T12:06:42.137Z,22.02
2022-10-13T12:09:18.346Z,17.58
2022-10-13T12:11:45.090Z,15.80
2022-10-13T12:14:21.661Z,13.88
2022-10-13T12:19:22.392Z,13.38
2022-10-13T12:21:50.188Z,13.43
2022-10-13T12:24:16.473Z,14.52
2022-10-13T12:26:42.992Z,15.38
2022-10-13T12:29:14.504Z,16.38
2022-10-13T12:31:42.558Z,18.35
2022-10-13T12:34:21.097Z,19.15
2022-10-13T12:36:58.585Z,16.33
2022-10-13T12:39:25.635Z,15.68
2022-10-13T12:41:52.981Z,15.98
2022-10-13T12:44:26.960Z,15.95
2022-10-13T12:46:56.008Z,17.08
2022-10-13T12:49:29.511Z,18.63
2022-10-13T12:52:05.973Z,19.80
2022-10-13T12:54:37.232Z,18.80
2022-10-13T12:57:26.483Z,18.27
2022-10-13T12:59:53.037Z,17.20
2022-10-13T13:02:22.062Z,18.55
2022-10-13T13:04:48.593Z,19.00
2022-10-13T13:07:29.272Z,18.45
2022-10-13T13:10:07.889Z,18.00
2022-10-13T13:12:37.700Z,18.52
2022-10-13T13:15:25.254Z,17.70
2022-10-13T13:17:58.169Z,18.13
2022-10-13T13:20:29.830Z,17.40
2022-10-13T13:22:56.191Z,18.48
2022-10-13T13:25:22.962Z,17.10
2022-10-13T13:27:49.857Z,17.15
2022-10-13T13:30:17.730Z,17.65
2022-10-13T13:32:44.151Z,17.75
2022-10-13T13:35:11.642Z,18.33
2022-10-13T13:37:39.182Z,17.02
2022-10-13T13:40:06.262Z,18.02
2022-10-13T13:42:32.693Z,16.98
2022-10-13T13:44:59.040Z,18.27
2022-10-13T13:47:26.817Z,19.77
2022-10-13T13:49:53.742Z,19.00
2022-10-13T13:52:21.706Z,20.05
2022-10-13T13:54:48.457Z,20.90
2022-10-13T13:57:15.014Z,20.63
2022-10-13T13:59:41.796Z,20.58
2022-10-13T14:02:12.823Z,19.52
2022-10-13T14:04:39.198Z,19.17
2022-10-13T14:07:05.498Z,19.27
2022-10-13T14:09:31.749Z,18.88
2022-10-13T14:11:58.764Z,18.83
2022-10-13T14:14:25.161Z,18.33
2022-10-13T14:16:51.438Z,18.77
2022-10-13T14:19:17.767Z,20.15
2022-10-13T14:21:45.819Z,22.02
2022-10-13T14:24:17.227Z,21.55
2022-10-13T14:26:43.537Z,21.70
2022-10-13T14:29:09.945Z,21.10
2022-10-13T14:31:36.227Z,21.27
2022-10-13T14:34:02.533Z,21.17
2022-10-13T14:36:30.792Z,21.45
2022-10-13T14:38:57.119Z,21.27
2022-10-13T14:41:23.918Z,20.75
2022-10-13T14:43:54.501Z,20.95
2022-10-13T14:46:20.921Z,20.40
2022-10-13T14:48:47.173Z,19.98
2022-10-13T14:51:14.569Z,20.85
2022-10-13T14:53:41.988Z,22.23
2022-10-13T14:56:24.932Z,21.90
2022-10-13T14:58:52.660Z,22.00
2022-10-13T15:01:19.367Z,23.38
2022-10-13T15:03:45.785Z,22.83
2022-10-13T15:06:19.401Z,24.05
2022-10-13T15:08:46.113Z,23.67
2022-10-13T15:11:12.728Z,23.25
2022-10-13T15:13:39.217Z,22.92
2022-10-13T15:16:06.391Z,24.70
2022-10-13T15:18:33.557Z,24.58
2022-10-13T15:20:59.824Z,23.10
2022-10-13T15:23:27.237Z,23.02
2022-10-13T15:25:57.853Z,22.17
2022-10-13T15:28:25.062Z,23.70
2022-10-13T15:30:51.431Z,23.27
2022-10-13T15:33:20.957Z,23.08
2022-10-13T15:35:48.073Z,22.67
2022-10-13T15:38:14.813Z,23.73
2022-10-13T15:40:41.599Z,22.85
2022-10-13T15:43:08.259Z,23.63
2022-10-13T15:45:35.901Z,23.50
2022-10-13T15:48:02.726Z,23.35
2022-10-13T15:50:29.100Z,24.10
2022-10-13T15:52:55.553Z,23.85
2022-10-13T15:55:21.998Z,23.77
2022-10-13T15:57:48.352Z,24.13
2022-10-13T16:00:15.112Z,23.58
2022-10-13T16:02:42.244Z,22.90
2022-10-13T16:05:09.740Z,23.02
2022-10-13T16:07:36.089Z,24.42
2022-10-13T16:10:02.559Z,24.02
2022-10-13T16:12:29.193Z,21.50
2022-10-13T16:14:55.483Z,24.08
2022-10-13T16:17:21.788Z,23.35
2022-10-13T16:19:48.143Z,23.15
2022-10-13T16:22:14.625Z,23.75
2022-10-13T16:24:40.993Z,23.58
2022-10-13T16:27:08.427Z,24.23
2022-10-13T16:29:35.736Z,25.30
2022-10-13T16:32:02.292Z,25.90
2022-10-13T16:34:28.841Z,26.60
2022-10-13T16:36:56.164Z,31.45
2022-10-13T16:39:24.317Z,29.40
2022-10-13T16:41:51.371Z,30.70
2022-10-13T16:44:17.810Z,31.20
2022-10-13T16:46:44.334Z,29.67
2022-10-13T16:49:11.169Z,33.15
2022-10-13T16:51:37.486Z,33.30
2022-10-13T16:54:04.551Z,33.33
2022-10-13T16:56:31.346Z,30.80
2022-10-13T16:58:59.164Z,32.40
2022-10-13T17:01:26.206Z,34.35
2022-10-13T17:03:52.950Z,34.40
2022-10-13T17:06:20.729Z,33.60
2022-10-13T17:08:54.032Z,35.00
2022-10-13T17:11:21.836Z,36.95
2022-10-13T17:13:48.572Z,34.15
2022-10-13T17:16:15.373Z,35.30
2022-10-13T17:18:44.231Z,35.13
2022-10-13T17:21:12.026Z,39.20
2022-10-13T17:23:38.353Z,37.85
2022-10-13T17:26:05.962Z,37.90
2022-10-13T17:28:32.982Z,40.40
2022-10-13T17:31:00.765Z,38.17
2022-10-13T17:33:27.797Z,38.05
2022-10-13T17:35:58.129Z,41.30
2022-10-13T17:38:25.563Z,40.78
2022-10-13T17:40:54.927Z,43.17
2022-10-13T17:43:23.636Z,43.00
2022-10-13T17:45:50.081Z,40.40
2022-10-13T17:48:22.116Z,43.45
2022-10-13T17:50:50.368Z,43.28
2022-10-13T17:53:18.454Z,43.85
2022-10-13T17:55:44.737Z,47.10
2022-10-13T17:58:13.581Z,45.75
2022-10-13T18:01:07.626Z,49.33
2022-10-13T18:03:26.233Z,49.78
2022-10-13T18:05:53.509Z,52.08
2022-10-13T18:08:20.039Z,49.95
2022-10-13T18:11:07.002Z,52.65
2022-10-13T18:13:33.524Z,51.05
2022-10-13T18:16:04.515Z,52.55
2022-10-13T18:18:30.861Z,49.08
2022-10-13T18:20:57.185Z,49.95
2022-10-13T18:23:23.453Z,47.65
2022-10-13T18:25:49.999Z,46.53
2022-10-13T18:28:18.941Z,45.30
2022-10-13T18:30:45.270Z,43.17
2022-10-13T18:33:11.570Z,44.97
2022-10-13T18:35:37.838Z,41.90
2022-10-13T18:38:04.153Z,41.95
2022-10-13T18:40:32.441Z,40.38
2022-10-13T18:42:59.229Z,41.80
2022-10-13T18:45:25.693Z,39.42
2022-10-13T18:47:52.114Z,40.17
2022-10-13T18:50:18.395Z,40.58
2022-10-13T18:52:44.662Z,39.65
2022-10-13T18:55:10.948Z,40.85
2022-10-13T18:57:38.030Z,37.83
2022-10-13T19:00:06.607Z,33.78
2022-10-13T19:02:33.383Z,34.60
2022-10-13T19:04:59.651Z,35.75
2022-10-13T19:07:25.921Z,30.75
2022-10-13T19:09:53.314Z,32.08
2022-10-13T19:12:19.607Z,31.50
2022-10-13T19:14:45.858Z,31.27
2022-10-13T19:17:12.171Z,31.27
2022-10-13T19:19:38.978Z,30.05
2022-10-13T19:22:05.322Z,30.08
2022-10-13T19:24:31.639Z,28.90
2022-10-13T19:26:57.909Z,27.85
2022-10-13T19:29:24.242Z,28.83
2022-10-13T19:31:50.571Z,28.98
2022-10-13T19:34:16.889Z,28.73
2022-10-13T19:36:44.558Z,29.10
2022-10-13T19:39:15.842Z,27.70
2022-10-13T19:41:42.784Z,29.67
2022-10-13T19:44:09.080Z,19.10
2022-10-13T19:46:38.661Z,20.65
2022-10-13T19:49:04.953Z,20.02
2022-10-13T19:51:31.504Z,21.23
2022-10-13T19:53:57.790Z,20.05
2022-10-13T19:56:26.062Z,20.67
2022-10-13T19:58:53.070Z,19.23
2022-10-13T20:01:20.317Z,19.90
2022-10-13T20:03:47.132Z,18.05
2022-10-13T20:06:13.783Z,18.30
2022-10-13T20:08:40.082Z,20.02
2022-10-13T20:11:07.319Z,19.63
2022-10-13T20:13:33.833Z,18.85
2022-10-13T20:16:04.311Z,19.60
2022-10-13T20:18:30.644Z,24.67
2022-10-13T20:21:00.832Z,24.33
2022-10-13T20:23:27.095Z,22.98
2022-10-13T20:25:53.445Z,26.65
2022-10-13T20:28:19.743Z,26.33
2022-10-13T20:30:46.029Z,25.23
2022-10-13T20:33:13.407Z,25.85
2022-10-13T20:35:39.708Z,25.17
2022-10-13T20:38:06.005Z,23.88
2022-10-13T20:40:32.240Z,22.27
2022-10-13T20:42:58.985Z,21.90
2022-10-13T20:45:25.668Z,23.02
2022-10-13T20:47:51.915Z,22.05
2022-10-13T20:50:18.181Z,22.20
2022-10-13T20:52:44.441Z,22.27
2022-10-13T20:55:10.801Z,21.90
2022-10-13T20:57:37.128Z,23.25
2022-10-13T21:00:04.547Z,23.27
2022-10-13T21:02:30.867Z,23.48
2022-10-13T21:04:57.350Z,23.42
2022-10-13T21:07:23.898Z,23.90
2022-10-13T21:09:53.803Z,23.70
2022-10-13T21:12:20.614Z,22.50
2022-10-13T21:14:46.865Z,24.35
2022-10-13T21:17:13.127Z,27.00
2022-10-13T21:19:39.384Z,24.98
2022-10-13T21:22:05.666Z,24.20
2022-10-13T21:24:32.029Z,26.25
2022-10-13T21:26:58.304Z,26.70
2022-10-13T21:29:24.683Z,26.70
2022-10-13T21:31:50.928Z,26.88
2022-10-13T21:34:17.185Z,26.90
2022-10-13T21:36:44.804Z,26.83
2022-10-13T21:39:12.941Z,26.52
2022-10-13T21:41:39.279Z,28.35
2022-10-13T21:44:05.549Z,27.42
2022-10-13T21:46:34.929Z,28.30
2022-10-13T21:49:02.625Z,29.38
2022-10-13T21:51:30.382Z,30.90
2022-10-13T21:53:57.881Z,31.38
2022-10-13T21:56:24.677Z,31.67
2022-10-13T21:58:51.090Z,30.63
2022-10-13T22:01:18.412Z,33.92
2022-10-13T22:03:46.898Z,33.75
2022-10-13T22:06:18.802Z,33.38
2022-10-13T22:08:46.928Z,31.75
2022-10-13T22:11:23.312Z,34.33
2022-10-13T22:13:49.662Z,33.92
2022-10-13T22:16:18.651Z,33.30
2022-10-13T22:18:45.149Z,34.28
2022-10-13T22:21:13.300Z,32.63
2022-10-13T22:23:39.829Z,31.45
2022-10-13T22:26:07.452Z,32.72
2022-10-13T22:28:37.267Z,34.35
2022-10-13T22:31:07.824Z,33.38
2022-10-13T22:33:34.879Z,35.30
2022-10-13T22:36:05.330Z,34.92
2022-10-13T22:38:31.698Z,34.40
2022-10-13T22:41:01.174Z,33.25
2022-10-13T22:43:27.435Z,34.42
2022-10-13T22:45:55.713Z,33.53
2022-10-13T22:48:21.980Z,33.72
2022-10-13T22:50:48.333Z,32.80
2022-10-13T22:53:14.625Z,33.08
2022-10-13T22:55:41.607Z,33.72
2022-10-13T22:58:08.490Z,32.80
2022-10-13T23:00:35.794Z,33.35
2022-10-13T23:03:02.603Z,32.47
2022-10-13T23:05:29.021Z,31.63
2022-10-13T23:07:55.350Z,29.83
2022-10-13T23:10:21.657Z,31.30
2022-10-13T23:12:47.950Z,32.38
2022-10-13T23:15:14.298Z,30.52
2022-10-13T23:17:40.573Z,31.67
2022-10-13T23:20:07.251Z,30.73
2022-10-13T23:22:33.521Z,31.70
2022-10-13T23:24:59.803Z,31.45
2022-10-13T23:27:26.070Z,31.63
2022-10-13T23:29:52.341Z,30.85
2022-10-13T23:32:20.955Z,31.48
2022-10-13T23:34:47.249Z,32.20
2022-10-13T23:37:13.886Z,31.60
2022-10-13T23:39:40.167Z,32.30
2022-10-13T23:42:06.503Z,30.92
2022-10-13T23:44:32.765Z,31.02
2022-10-13T23:46:59.025Z,29.17
2022-10-13T23:49:25.322Z,29.27
2022-10-13T23:51:51.938Z,30.30
2022-10-13T23:54:18.442Z,28.95
2022-10-13T23:56:44.750Z,30.80
2022-10-13T23:59:11.025Z,29.77
